Fairchild Air Force Base
KSKA : now visible

Airfield :











YOU CAN JOIN US ON...

 
LOGIN :

Register | Disclaimer

   EN    FR    IT 

 









Legend :    VFR   Marginal VFR   IFR   Intensive IFR   Very Intensive IFR
Visi :
Ceiling :
>= 8 km
>= 3000ft
5 to 8 km
1000 to 3000 ft
1500m to 5 km
500 to 1000 ft
800 to 1500m
200 to 500 ft
< 800m
< 200 ft
Symbols :   Thunderstorms  Fog  Heavy snow  Heavy precipitations  Wind > 20 kt







- Airport Elevation : 2461 ft


KSKA - Fairchild Air Force Base

CURRENT METAR :
  • 210358Z AUTO 19010KT 10SM OVC090 13/13 A3003 RMK AO2 VIS 2 RWY05/23 SLP172 T01260126 $

EXPIRED METARs :
  • 210258Z AUTO 17007KT 10SM BKN090 12/12 A3001 RMK AO2 VIS 2 1/4 RWY05/23 SLP167 60000 T01210121 50005 $
  • 210158Z AUTO 16005KT 10SM FEW070 BKN090 13/13 A3000 RMK AO2 VIS 1 3/8 RWY05/23 SLP163 T01290129 $

TAF TAF KSKA
Valid from the 21 at 03:00 until the 22 at 09:00 UTC


210300Z 2103/2209 21006KT 9999 SCT020 SCT060 QNH3001INS
BECMG 2108/2109 VRB06KT 3200 BR SCT020 BKN060 610655 QNH3003INS
BECMG 2117/2118 20009KT 9999 NSW SCT050 QNH3007INS TX19/2200Z TN09/2112Z
No reported NOTAMs for that airfield.



MET'MAP, your aeronautical weather chart ! - Copyright ORBIFLY December 2007 - Disclaimer

ORBIFLY MET'MAP TEAM :

Programming & Development : Alexandra Zaïnal
Concept & Development : Baudouin d'Aumeries
Co-Development & Prog : Marc-Olivier Méhu
Technical & hardware support : Manuel Goepfert

Contact : metmap@orbifly.com




SOURCES & CREDITS :

   NOAA       Earth
Advisory